sensor_id;sensor_type;location;lat;lon;timestamp;temperature;humidity
9943;DHT22;5010;45.080;7.634;2023-01-30T00:00:03;19.20;1.00
9943;DHT22;5010;45.080;7.634;2023-01-30T00:02:31;19.20;1.00
9943;DHT22;5010;45.080;7.634;2023-01-30T00:04:58;19.20;1.00
9943;DHT22;5010;45.080;7.634;2023-01-30T00:07:24;19.20;1.00
9943;DHT22;5010;45.080;7.634;2023-01-30T00:09:51;19.20;1.00
9943;DHT22;5010;45.080;7.634;2023-01-30T00:12:19;19.20;1.00
9943;DHT22;5010;45.080;7.634;2023-01-30T00:14:46;19.20;1.00
9943;DHT22;5010;45.080;7.634;2023-01-30T00:17:13;19.20;1.00
9943;DHT22;5010;45.080;7.634;2023-01-30T00:19:40;19.10;1.00
9943;DHT22;5010;45.080;7.634;2023-01-30T00:22:06;19.20;1.00
9943;DHT22;5010;45.080;7.634;2023-01-30T00:24:33;19.10;1.00
9943;DHT22;5010;45.080;7.634;2023-01-30T00:27:00;19.10;1.00
9943;DHT22;5010;45.080;7.634;2023-01-30T00:29:28;19.10;1.00
9943;DHT22;5010;45.080;7.634;2023-01-30T00:31:55;19.10;1.00
9943;DHT22;5010;45.080;7.634;2023-01-30T00:34:22;19.10;1.00
9943;DHT22;5010;45.080;7.634;2023-01-30T00:36:49;19.00;1.00
9943;DHT22;5010;45.080;7.634;2023-01-30T00:39:16;19.00;1.00
9943;DHT22;5010;45.080;7.634;2023-01-30T00:41:43;19.00;1.00
9943;DHT22;5010;45.080;7.634;2023-01-30T00:44:29;19.10;1.00
9943;DHT22;5010;45.080;7.634;2023-01-30T00:47:13;19.10;1.00
9943;DHT22;5010;45.080;7.634;2023-01-30T00:49:40;19.10;1.00
9943;DHT22;5010;45.080;7.634;2023-01-30T00:52:07;19.10;1.00
9943;DHT22;5010;45.080;7.634;2023-01-30T00:54:34;19.10;4.90
9943;DHT22;5010;45.080;7.634;2023-01-30T00:57:01;19.10;15.70
9943;DHT22;5010;45.080;7.634;2023-01-30T00:59:29;19.10;24.80
9943;DHT22;5010;45.080;7.634;2023-01-30T01:01:56;19.10;31.00
9943;DHT22;5010;45.080;7.634;2023-01-30T01:04:23;19.10;37.10
9943;DHT22;5010;45.080;7.634;2023-01-30T01:06:50;19.10;40.10
9943;DHT22;5010;45.080;7.634;2023-01-30T01:09:17;19.10;45.80
9943;DHT22;5010;45.080;7.634;2023-01-30T01:11:44;19.10;55.00
9943;DHT22;5010;45.080;7.634;2023-01-30T01:14:11;19.10;64.50
9943;DHT22;5010;45.080;7.634;2023-01-30T01:16:39;19.00;67.70
9943;DHT22;5010;45.080;7.634;2023-01-30T01:19:06;19.00;77.70
9943;DHT22;5010;45.080;7.634;2023-01-30T01:21:33;19.00;93.80
9943;DHT22;5010;45.080;7.634;2023-01-30T01:24:00;19.00;80.50
9943;DHT22;5010;45.080;7.634;2023-01-30T01:26:27;19.00;89.10
9943;DHT22;5010;45.080;7.634;2023-01-30T01:28:54;19.00;90.20
9943;DHT22;5010;45.080;7.634;2023-01-30T01:31:21;19.00;83.60
9943;DHT22;5010;45.080;7.634;2023-01-30T01:33:50;19.00;81.40
9943;DHT22;5010;45.080;7.634;2023-01-30T01:36:17;19.00;76.90
9943;DHT22;5010;45.080;7.634;2023-01-30T01:38:44;19.00;74.80
9943;DHT22;5010;45.080;7.634;2023-01-30T01:41:12;19.00;73.70
9943;DHT22;5010;45.080;7.634;2023-01-30T01:44:01;19.00;70.70
9943;DHT22;5010;45.080;7.634;2023-01-30T01:46:31;18.90;66.60
9943;DHT22;5010;45.080;7.634;2023-01-30T01:49:04;19.00;63.00
9943;DHT22;5010;45.080;7.634;2023-01-30T01:51:34;18.90;79.50
9943;DHT22;5010;45.080;7.634;2023-01-30T01:54:05;18.90;54.10
9943;DHT22;5010;45.080;7.634;2023-01-30T01:56:35;18.90;50.50
9943;DHT22;5010;45.080;7.634;2023-01-30T01:59:08;18.90;46.50
9943;DHT22;5010;45.080;7.634;2023-01-30T02:01:36;18.90;44.80
9943;DHT22;5010;45.080;7.634;2023-01-30T02:04:06;18.90;39.90
9943;DHT22;5010;45.080;7.634;2023-01-30T02:06:36;18.90;34.30
9943;DHT22;5010;45.080;7.634;2023-01-30T02:09:07;18.90;34.20
9943;DHT22;5010;45.080;7.634;2023-01-30T02:11:40;18.90;28.60
9943;DHT22;5010;45.080;7.634;2023-01-30T02:14:09;18.80;25.90
9943;DHT22;5010;45.080;7.634;2023-01-30T02:16:36;18.80;21.00
9943;DHT22;5010;45.080;7.634;2023-01-30T02:19:11;18.80;18.70
9943;DHT22;5010;45.080;7.634;2023-01-30T02:25:02;18.80;12.20
9943;DHT22;5010;45.080;7.634;2023-01-30T02:27:58;18.70;8.00
9943;DHT22;5010;45.080;7.634;2023-01-30T02:33:56;18.70;5.50
9943;DHT22;5010;45.080;7.634;2023-01-30T02:36:30;18.70;1.70
9943;DHT22;5010;45.080;7.634;2023-01-30T02:39:05;18.70;1.00
9943;DHT22;5010;45.080;7.634;2023-01-30T02:41:39;18.70;1.00
9943;DHT22;5010;45.080;7.634;2023-01-30T02:44:12;18.70;1.00
9943;DHT22;5010;45.080;7.634;2023-01-30T02:46:49;18.70;1.00
9943;DHT22;5010;45.080;7.634;2023-01-30T02:49:24;18.70;1.00
9943;DHT22;5010;45.080;7.634;2023-01-30T02:51:55;18.70;1.00
9943;DHT22;5010;45.080;7.634;2023-01-30T02:54:23;18.70;1.00
9943;DHT22;5010;45.080;7.634;2023-01-30T02:56:51;18.60;1.00
9943;DHT22;5010;45.080;7.634;2023-01-30T02:59:22;18.60;1.00
9943;DHT22;5010;45.080;7.634;2023-01-30T03:02:15;18.60;1.00
9943;DHT22;5010;45.080;7.634;2023-01-30T03:05:03;18.60;1.00
9943;DHT22;5010;45.080;7.634;2023-01-30T03:07:41;18.60;1.00
9943;DHT22;5010;45.080;7.634;2023-01-30T03:10:17;18.60;1.00
9943;DHT22;5010;45.080;7.634;2023-01-30T03:12:50;18.60;1.00
9943;DHT22;5010;45.080;7.634;2023-01-30T03:15:23;18.60;1.00
9943;DHT22;5010;45.080;7.634;2023-01-30T03:17:54;18.60;1.00
9943;DHT22;5010;45.080;7.634;2023-01-30T03:20:21;18.60;1.00
9943;DHT22;5010;45.080;7.634;2023-01-30T03:22:48;18.50;1.00
9943;DHT22;5010;45.080;7.634;2023-01-30T03:25:18;18.60;1.00
9943;DHT22;5010;45.080;7.634;2023-01-30T03:27:45;18.50;1.00
9943;DHT22;5010;45.080;7.634;2023-01-30T03:30:13;18.50;1.00
9943;DHT22;5010;45.080;7.634;2023-01-30T03:32:40;18.50;1.00
9943;DHT22;5010;45.080;7.634;2023-01-30T03:35:09;18.50;1.00
9943;DHT22;5010;45.080;7.634;2023-01-30T03:37:36;18.50;1.00
9943;DHT22;5010;45.080;7.634;2023-01-30T03:40:04;18.40;1.00
9943;DHT22;5010;45.080;7.634;2023-01-30T03:42:31;18.50;1.00
9943;DHT22;5010;45.080;7.634;2023-01-30T03:44:57;18.50;1.00
9943;DHT22;5010;45.080;7.634;2023-01-30T03:47:24;18.40;1.00
9943;DHT22;5010;45.080;7.634;2023-01-30T03:49:51;18.50;1.00
9943;DHT22;5010;45.080;7.634;2023-01-30T03:52:19;18.40;1.00
9943;DHT22;5010;45.080;7.634;2023-01-30T03:54:46;18.40;1.00
9943;DHT22;5010;45.080;7.634;2023-01-30T03:57:13;18.40;1.00
9943;DHT22;5010;45.080;7.634;2023-01-30T03:59:40;18.40;1.00
9943;DHT22;5010;45.080;7.634;2023-01-30T04:02:07;18.50;1.00
9943;DHT22;5010;45.080;7.634;2023-01-30T04:04:33;18.40;1.00
9943;DHT22;5010;45.080;7.634;2023-01-30T04:07:00;18.40;1.00
9943;DHT22;5010;45.080;7.634;2023-01-30T04:09:29;18.40;1.00
9943;DHT22;5010;45.080;7.634;2023-01-30T04:11:56;18.40;1.00
9943;DHT22;5010;45.080;7.634;2023-01-30T04:14:23;18.40;1.00
9943;DHT22;5010;45.080;7.634;2023-01-30T04:16:50;18.40;1.00
9943;DHT22;5010;45.080;7.634;2023-01-30T04:19:16;18.40;1.00
9943;DHT22;5010;45.080;7.634;2023-01-30T04:21:43;18.40;1.00
9943;DHT22;5010;45.080;7.634;2023-01-30T04:24:10;18.40;1.00
9943;DHT22;5010;45.080;7.634;2023-01-30T04:26:38;18.40;1.00
9943;DHT22;5010;45.080;7.634;2023-01-30T04:29:05;18.40;1.00
9943;DHT22;5010;45.080;7.634;2023-01-30T04:31:32;18.40;1.00
9943;DHT22;5010;45.080;7.634;2023-01-30T04:33:59;18.40;1.00
9943;DHT22;5010;45.080;7.634;2023-01-30T04:36:26;18.40;1.00
9943;DHT22;5010;45.080;7.634;2023-01-30T04:38:53;18.40;1.00
9943;DHT22;5010;45.080;7.634;2023-01-30T04:41:20;18.50;1.00
9943;DHT22;5010;45.080;7.634;2023-01-30T04:43:49;18.50;1.00
9943;DHT22;5010;45.080;7.634;2023-01-30T04:46:15;18.50;1.00
9943;DHT22;5010;45.080;7.634;2023-01-30T04:48:42;18.50;1.00
9943;DHT22;5010;45.080;7.634;2023-01-30T04:51:09;18.50;1.00
9943;DHT22;5010;45.080;7.634;2023-01-30T04:53:36;18.50;1.00
9943;DHT22;5010;45.080;7.634;2023-01-30T04:56:04;18.60;1.00
9943;DHT22;5010;45.080;7.634;2023-01-30T04:58:31;18.60;1.00
9943;DHT22;5010;45.080;7.634;2023-01-30T05:01:13;18.60;1.00
9943;DHT22;5010;45.080;7.634;2023-01-30T05:03:40;18.60;1.00
9943;DHT22;5010;45.080;7.634;2023-01-30T05:06:07;18.60;1.00
9943;DHT22;5010;45.080;7.634;2023-01-30T05:08:34;18.60;1.00
9943;DHT22;5010;45.080;7.634;2023-01-30T05:11:00;18.60;1.00
9943;DHT22;5010;45.080;7.634;2023-01-30T05:13:27;18.70;1.00
9943;DHT22;5010;45.080;7.634;2023-01-30T05:15:54;18.70;1.00
9943;DHT22;5010;45.080;7.634;2023-01-30T05:18:22;18.70;1.00
9943;DHT22;5010;45.080;7.634;2023-01-30T05:20:49;18.70;1.00
9943;DHT22;5010;45.080;7.634;2023-01-30T05:23:16;18.70;1.00
9943;DHT22;5010;45.080;7.634;2023-01-30T05:25:43;18.70;1.00
9943;DHT22;5010;45.080;7.634;2023-01-30T05:28:10;18.70;1.00
9943;DHT22;5010;45.080;7.634;2023-01-30T05:30:36;18.70;1.00
9943;DHT22;5010;45.080;7.634;2023-01-30T05:33:03;18.80;1.00
9943;DHT22;5010;45.080;7.634;2023-01-30T05:35:31;18.80;1.00
9943;DHT22;5010;45.080;7.634;2023-01-30T05:37:58;18.80;1.00
9943;DHT22;5010;45.080;7.634;2023-01-30T05:40:26;18.80;1.00
9943;DHT22;5010;45.080;7.634;2023-01-30T05:42:53;18.80;1.00
9943;DHT22;5010;45.080;7.634;2023-01-30T05:45:20;18.80;1.00
9943;DHT22;5010;45.080;7.634;2023-01-30T05:47:49;18.80;1.00
9943;DHT22;5010;45.080;7.634;2023-01-30T05:50:17;18.80;1.00
9943;DHT22;5010;45.080;7.634;2023-01-30T05:52:45;18.80;1.00
9943;DHT22;5010;45.080;7.634;2023-01-30T05:55:12;18.90;1.00
9943;DHT22;5010;45.080;7.634;2023-01-30T05:57:39;18.90;1.00
9943;DHT22;5010;45.080;7.634;2023-01-30T06:00:07;18.90;1.00
9943;DHT22;5010;45.080;7.634;2023-01-30T06:02:36;18.90;1.00
9943;DHT22;5010;45.080;7.634;2023-01-30T06:05:03;18.90;1.00
9943;DHT22;5010;45.080;7.634;2023-01-30T06:07:30;18.90;1.00
9943;DHT22;5010;45.080;7.634;2023-01-30T06:09:58;18.90;1.00
9943;DHT22;5010;45.080;7.634;2023-01-30T06:12:25;18.90;1.00
9943;DHT22;5010;45.080;7.634;2023-01-30T06:14:52;18.90;1.00
9943;DHT22;5010;45.080;7.634;2023-01-30T06:17:19;18.90;1.00
9943;DHT22;5010;45.080;7.634;2023-01-30T06:19:45;18.90;1.00
9943;DHT22;5010;45.080;7.634;2023-01-30T06:22:12;18.90;1.00
9943;DHT22;5010;45.080;7.634;2023-01-30T06:24:39;18.90;1.00
9943;DHT22;5010;45.080;7.634;2023-01-30T06:27:07;19.00;1.00
9943;DHT22;5010;45.080;7.634;2023-01-30T06:29:34;18.90;1.00
9943;DHT22;5010;45.080;7.634;2023-01-30T06:32:01;19.00;1.00
9943;DHT22;5010;45.080;7.634;2023-01-30T06:34:28;19.00;1.00
9943;DHT22;5010;45.080;7.634;2023-01-30T06:36:54;19.00;1.00
9943;DHT22;5010;45.080;7.634;2023-01-30T06:39:21;19.00;1.00
9943;DHT22;5010;45.080;7.634;2023-01-30T06:41:48;19.00;1.00
9943;DHT22;5010;45.080;7.634;2023-01-30T06:44:16;19.00;1.00
9943;DHT22;5010;45.080;7.634;2023-01-30T06:46:43;19.00;1.00
9943;DHT22;5010;45.080;7.634;2023-01-30T06:49:10;19.00;1.00
9943;DHT22;5010;45.080;7.634;2023-01-30T06:51:37;19.00;1.00
9943;DHT22;5010;45.080;7.634;2023-01-30T06:54:04;19.00;1.00
9943;DHT22;5010;45.080;7.634;2023-01-30T06:56:30;19.00;1.00
9943;DHT22;5010;45.080;7.634;2023-01-30T06:58:57;19.00;1.00
9943;DHT22;5010;45.080;7.634;2023-01-30T07:01:25;19.00;1.00
9943;DHT22;5010;45.080;7.634;2023-01-30T07:03:52;19.00;1.00
9943;DHT22;5010;45.080;7.634;2023-01-30T07:06:19;19.10;1.00
9943;DHT22;5010;45.080;7.634;2023-01-30T07:08:46;19.10;1.00
9943;DHT22;5010;45.080;7.634;2023-01-30T07:11:13;19.10;1.00
9943;DHT22;5010;45.080;7.634;2023-01-30T07:13:40;19.10;1.00
9943;DHT22;5010;45.080;7.634;2023-01-30T07:16:07;19.10;1.00
9943;DHT22;5010;45.080;7.634;2023-01-30T07:18:35;19.10;1.00
9943;DHT22;5010;45.080;7.634;2023-01-30T07:21:02;19.10;1.00
9943;DHT22;5010;45.080;7.634;2023-01-30T07:23:28;19.10;1.00
9943;DHT22;5010;45.080;7.634;2023-01-30T07:25:55;19.10;1.00
9943;DHT22;5010;45.080;7.634;2023-01-30T07:28:22;19.10;1.00
9943;DHT22;5010;45.080;7.634;2023-01-30T07:30:49;19.10;1.00
9943;DHT22;5010;45.080;7.634;2023-01-30T07:33:17;19.10;1.00
9943;DHT22;5010;45.080;7.634;2023-01-30T07:35:46;19.10;1.00
9943;DHT22;5010;45.080;7.634;2023-01-30T07:38:13;19.10;1.00
9943;DHT22;5010;45.080;7.634;2023-01-30T07:40:40;19.10;1.00
9943;DHT22;5010;45.080;7.634;2023-01-30T07:43:09;19.10;1.00
9943;DHT22;5010;45.080;7.634;2023-01-30T07:45:38;19.10;1.00
9943;DHT22;5010;45.080;7.634;2023-01-30T07:48:05;19.10;1.00
9943;DHT22;5010;45.080;7.634;2023-01-30T07:50:32;19.10;1.00
9943;DHT22;5010;45.080;7.634;2023-01-30T07:53:02;19.10;1.00
9943;DHT22;5010;45.080;7.634;2023-01-30T07:55:29;19.10;1.00
9943;DHT22;5010;45.080;7.634;2023-01-30T07:57:56;19.10;1.00
9943;DHT22;5010;45.080;7.634;2023-01-30T08:00:24;19.10;1.00
9943;DHT22;5010;45.080;7.634;2023-01-30T08:02:50;19.10;1.00
9943;DHT22;5010;45.080;7.634;2023-01-30T08:05:17;19.10;1.00
9943;DHT22;5010;45.080;7.634;2023-01-30T08:07:44;19.10;1.00
9943;DHT22;5010;45.080;7.634;2023-01-30T08:10:13;19.10;1.00
9943;DHT22;5010;45.080;7.634;2023-01-30T08:12:40;19.10;1.00
9943;DHT22;5010;45.080;7.634;2023-01-30T08:15:08;19.00;1.00
9943;DHT22;5010;45.080;7.634;2023-01-30T08:17:35;19.00;1.00
9943;DHT22;5010;45.080;7.634;2023-01-30T08:20:02;19.10;1.00
9943;DHT22;5010;45.080;7.634;2023-01-30T08:22:29;19.10;1.00
9943;DHT22;5010;45.080;7.634;2023-01-30T08:24:56;19.10;1.00
9943;DHT22;5010;45.080;7.634;2023-01-30T08:27:24;19.10;1.00
9943;DHT22;5010;45.080;7.634;2023-01-30T08:29:51;19.10;1.00
9943;DHT22;5010;45.080;7.634;2023-01-30T08:32:18;19.10;1.00
9943;DHT22;5010;45.080;7.634;2023-01-30T08:34:45;19.00;1.00
9943;DHT22;5010;45.080;7.634;2023-01-30T08:37:11;19.00;1.00
9943;DHT22;5010;45.080;7.634;2023-01-30T08:39:39;19.00;1.00
9943;DHT22;5010;45.080;7.634;2023-01-30T08:42:06;19.00;1.00
9943;DHT22;5010;45.080;7.634;2023-01-30T08:44:34;19.00;1.00
9943;DHT22;5010;45.080;7.634;2023-01-30T08:47:02;19.00;1.00
9943;DHT22;5010;45.080;7.634;2023-01-30T08:49:29;19.00;1.00
9943;DHT22;5010;45.080;7.634;2023-01-30T08:51:56;19.00;1.00
9943;DHT22;5010;45.080;7.634;2023-01-30T08:54:22;19.00;1.00
9943;DHT22;5010;45.080;7.634;2023-01-30T08:56:49;19.00;1.00
9943;DHT22;5010;45.080;7.634;2023-01-30T08:59:16;19.00;1.00
9943;DHT22;5010;45.080;7.634;2023-01-30T09:01:44;19.00;1.00
9943;DHT22;5010;45.080;7.634;2023-01-30T09:04:11;19.00;1.00
9943;DHT22;5010;45.080;7.634;2023-01-30T09:06:38;19.00;1.00
9943;DHT22;5010;45.080;7.634;2023-01-30T09:09:05;19.00;1.00
9943;DHT22;5010;45.080;7.634;2023-01-30T09:11:32;19.00;1.00
9943;DHT22;5010;45.080;7.634;2023-01-30T09:13:58;19.00;1.00
9943;DHT22;5010;45.080;7.634;2023-01-30T09:16:25;18.90;1.00
9943;DHT22;5010;45.080;7.634;2023-01-30T09:18:53;18.90;1.00
9943;DHT22;5010;45.080;7.634;2023-01-30T09:21:20;18.90;1.00
9943;DHT22;5010;45.080;7.634;2023-01-30T09:23:47;18.90;1.00
9943;DHT22;5010;45.080;7.634;2023-01-30T09:26:16;18.90;1.00
9943;DHT22;5010;45.080;7.634;2023-01-30T09:28:43;18.90;1.00
9943;DHT22;5010;45.080;7.634;2023-01-30T09:31:10;18.90;1.00
9943;DHT22;5010;45.080;7.634;2023-01-30T09:33:37;18.90;1.00
9943;DHT22;5010;45.080;7.634;2023-01-30T09:36:06;18.90;1.00
9943;DHT22;5010;45.080;7.634;2023-01-30T09:38:36;18.90;1.00
9943;DHT22;5010;45.080;7.634;2023-01-30T09:41:15;18.90;1.00
9943;DHT22;5010;45.080;7.634;2023-01-30T09:44:05;18.90;1.00
9943;DHT22;5010;45.080;7.634;2023-01-30T09:46:42;18.90;1.00
9943;DHT22;5010;45.080;7.634;2023-01-30T09:49:21;19.00;1.00
9943;DHT22;5010;45.080;7.634;2023-01-30T09:52:00;19.00;1.00
9943;DHT22;5010;45.080;7.634;2023-01-30T09:54:31;19.00;1.00
9943;DHT22;5010;45.080;7.634;2023-01-30T09:57:09;19.00;1.00
9943;DHT22;5010;45.080;7.634;2023-01-30T09:59:53;19.00;1.00
9943;DHT22;5010;45.080;7.634;2023-01-30T10:02:36;19.00;1.00
9943;DHT22;5010;45.080;7.634;2023-01-30T10:05:05;19.00;1.00
9943;DHT22;5010;45.080;7.634;2023-01-30T10:07:45;19.00;1.00
9943;DHT22;5010;45.080;7.634;2023-01-30T10:10:20;19.00;1.00
9943;DHT22;5010;45.080;7.634;2023-01-30T10:12:55;19.00;1.00
9943;DHT22;5010;45.080;7.634;2023-01-30T10:15:43;19.00;1.00
9943;DHT22;5010;45.080;7.634;2023-01-30T10:21:16;19.00;1.00
9943;DHT22;5010;45.080;7.634;2023-01-30T10:24:01;19.00;1.00
9943;DHT22;5010;45.080;7.634;2023-01-30T10:26:31;19.00;1.00
9943;DHT22;5010;45.080;7.634;2023-01-30T10:29:01;19.00;1.00
9943;DHT22;5010;45.080;7.634;2023-01-30T10:31:35;19.00;1.00
9943;DHT22;5010;45.080;7.634;2023-01-30T10:34:05;19.00;1.00
9943;DHT22;5010;45.080;7.634;2023-01-30T10:36:38;19.00;1.00
9943;DHT22;5010;45.080;7.634;2023-01-30T10:39:19;19.10;1.00
9943;DHT22;5010;45.080;7.634;2023-01-30T10:41:53;19.10;1.00
9943;DHT22;5010;45.080;7.634;2023-01-30T10:44:22;19.10;1.00
9943;DHT22;5010;45.080;7.634;2023-01-30T10:47:10;19.10;1.00
9943;DHT22;5010;45.080;7.634;2023-01-30T10:49:43;19.10;1.00
9943;DHT22;5010;45.080;7.634;2023-01-30T10:52:23;19.10;1.00
9943;DHT22;5010;45.080;7.634;2023-01-30T10:55:00;19.10;1.00
9943;DHT22;5010;45.080;7.634;2023-01-30T10:57:41;19.20;1.00
9943;DHT22;5010;45.080;7.634;2023-01-30T11:00:19;19.20;1.00
9943;DHT22;5010;45.080;7.634;2023-01-30T11:02:57;19.20;1.00
9943;DHT22;5010;45.080;7.634;2023-01-30T11:05:38;19.20;1.00
9943;DHT22;5010;45.080;7.634;2023-01-30T11:08:11;19.20;1.00
9943;DHT22;5010;45.080;7.634;2023-01-30T11:10:43;19.20;1.00
9943;DHT22;5010;45.080;7.634;2023-01-30T11:13:13;19.30;1.00
9943;DHT22;5010;45.080;7.634;2023-01-30T11:15:44;19.30;1.00
9943;DHT22;5010;45.080;7.634;2023-01-30T11:18:12;19.30;1.00
9943;DHT22;5010;45.080;7.634;2023-01-30T11:20:40;19.30;1.00
9943;DHT22;5010;45.080;7.634;2023-01-30T11:23:22;19.30;1.00
9943;DHT22;5010;45.080;7.634;2023-01-30T11:25:54;19.30;1.00
9943;DHT22;5010;45.080;7.634;2023-01-30T11:28:22;19.40;1.00
9943;DHT22;5010;45.080;7.634;2023-01-30T11:30:52;19.40;1.00
9943;DHT22;5010;45.080;7.634;2023-01-30T11:33:20;19.40;1.00
9943;DHT22;5010;45.080;7.634;2023-01-30T11:35:55;19.40;1.00
9943;DHT22;5010;45.080;7.634;2023-01-30T11:38:26;19.40;1.00
9943;DHT22;5010;45.080;7.634;2023-01-30T11:41:09;19.50;1.00
9943;DHT22;5010;45.080;7.634;2023-01-30T11:43:39;19.50;1.00
9943;DHT22;5010;45.080;7.634;2023-01-30T11:46:07;19.50;1.00
9943;DHT22;5010;45.080;7.634;2023-01-30T11:48:42;19.50;1.00
9943;DHT22;5010;45.080;7.634;2023-01-30T11:51:11;19.50;1.00
9943;DHT22;5010;45.080;7.634;2023-01-30T11:53:40;19.50;1.00
9943;DHT22;5010;45.080;7.634;2023-01-30T11:56:15;19.60;1.00
9943;DHT22;5010;45.080;7.634;2023-01-30T11:58:43;19.60;1.00
9943;DHT22;5010;45.080;7.634;2023-01-30T12:01:15;19.60;1.00
9943;DHT22;5010;45.080;7.634;2023-01-30T12:03:48;19.60;1.00
9943;DHT22;5010;45.080;7.634;2023-01-30T12:06:21;19.60;1.00
9943;DHT22;5010;45.080;7.634;2023-01-30T12:08:51;19.60;1.00
9943;DHT22;5010;45.080;7.634;2023-01-30T12:11:29;19.60;1.00
9943;DHT22;5010;45.080;7.634;2023-01-30T12:14:08;19.60;1.00
9943;DHT22;5010;45.080;7.634;2023-01-30T12:16:49;19.60;1.00
9943;DHT22;5010;45.080;7.634;2023-01-30T12:19:26;19.70;1.00
9943;DHT22;5010;45.080;7.634;2023-01-30T12:22:00;19.80;1.00
9943;DHT22;5010;45.080;7.634;2023-01-30T12:24:35;19.80;1.00
9943;DHT22;5010;45.080;7.634;2023-01-30T12:27:11;19.80;1.00
9943;DHT22;5010;45.080;7.634;2023-01-30T12:29:45;19.80;1.00
9943;DHT22;5010;45.080;7.634;2023-01-30T12:32:17;19.80;1.00
9943;DHT22;5010;45.080;7.634;2023-01-30T12:34:45;19.90;1.00
9943;DHT22;5010;45.080;7.634;2023-01-30T12:37:27;19.90;1.00
9943;DHT22;5010;45.080;7.634;2023-01-30T12:40:03;19.90;1.00
9943;DHT22;5010;45.080;7.634;2023-01-30T12:43:05;19.90;1.00
9943;DHT22;5010;45.080;7.634;2023-01-30T12:45:41;19.90;1.00
9943;DHT22;5010;45.080;7.634;2023-01-30T12:48:50;19.90;1.00
9943;DHT22;5010;45.080;7.634;2023-01-30T12:51:35;19.80;1.00
9943;DHT22;5010;45.080;7.634;2023-01-30T12:54:11;19.80;1.00
9943;DHT22;5010;45.080;7.634;2023-01-30T12:57:06;19.80;1.00
9943;DHT22;5010;45.080;7.634;2023-01-30T12:59:43;19.70;1.00
9943;DHT22;5010;45.080;7.634;2023-01-30T13:05:28;19.70;1.00
9943;DHT22;5010;45.080;7.634;2023-01-30T13:08:19;19.60;1.00
9943;DHT22;5010;45.080;7.634;2023-01-30T13:10:50;19.60;1.00
9943;DHT22;5010;45.080;7.634;2023-01-30T13:13:24;19.60;1.00
9943;DHT22;5010;45.080;7.634;2023-01-30T13:16:03;19.60;1.00
9943;DHT22;5010;45.080;7.634;2023-01-30T13:18:34;19.60;1.00
9943;DHT22;5010;45.080;7.634;2023-01-30T13:21:08;19.60;1.00
9943;DHT22;5010;45.080;7.634;2023-01-30T13:23:46;19.50;1.00
9943;DHT22;5010;45.080;7.634;2023-01-30T13:26:17;19.50;1.00
9943;DHT22;5010;45.080;7.634;2023-01-30T13:28:46;19.50;1.00
9943;DHT22;5010;45.080;7.634;2023-01-30T13:31:18;19.50;1.00
9943;DHT22;5010;45.080;7.634;2023-01-30T13:33:48;19.50;1.00
9943;DHT22;5010;45.080;7.634;2023-01-30T13:36:18;19.50;1.00
9943;DHT22;5010;45.080;7.634;2023-01-30T13:38:55;19.50;1.00
9943;DHT22;5010;45.080;7.634;2023-01-30T13:41:24;19.50;1.00
9943;DHT22;5010;45.080;7.634;2023-01-30T13:43:55;19.50;1.00
9943;DHT22;5010;45.080;7.634;2023-01-30T13:46:26;19.50;1.00
9943;DHT22;5010;45.080;7.634;2023-01-30T13:49:05;19.50;1.00
9943;DHT22;5010;45.080;7.634;2023-01-30T13:51:45;19.50;1.00
9943;DHT22;5010;45.080;7.634;2023-01-30T13:54:37;19.50;1.00
9943;DHT22;5010;45.080;7.634;2023-01-30T13:57:12;19.50;1.00
9943;DHT22;5010;45.080;7.634;2023-01-30T14:03:26;19.40;1.00
9943;DHT22;5010;45.080;7.634;2023-01-30T14:06:12;19.40;1.00
9943;DHT22;5010;45.080;7.634;2023-01-30T14:08:51;19.40;1.00
9943;DHT22;5010;45.080;7.634;2023-01-30T14:11:38;19.40;1.00
9943;DHT22;5010;45.080;7.634;2023-01-30T14:14:26;19.30;1.00
9943;DHT22;5010;45.080;7.634;2023-01-30T14:16:56;19.30;1.00
9943;DHT22;5010;45.080;7.634;2023-01-30T14:19:36;19.40;1.00
9943;DHT22;5010;45.080;7.634;2023-01-30T14:22:17;19.30;1.00
9943;DHT22;5010;45.080;7.634;2023-01-30T14:27:42;19.40;1.00
9943;DHT22;5010;45.080;7.634;2023-01-30T14:33:31;19.30;1.00
9943;DHT22;5010;45.080;7.634;2023-01-30T14:36:33;19.30;1.00
9943;DHT22;5010;45.080;7.634;2023-01-30T14:39:39;19.30;1.00
9943;DHT22;5010;45.080;7.634;2023-01-30T14:42:27;19.30;1.00
9943;DHT22;5010;45.080;7.634;2023-01-30T14:45:01;19.40;1.00
9943;DHT22;5010;45.080;7.634;2023-01-30T14:47:30;19.40;1.00
9943;DHT22;5010;45.080;7.634;2023-01-30T14:49:57;19.30;1.00
9943;DHT22;5010;45.080;7.634;2023-01-30T14:52:37;19.40;1.00
9943;DHT22;5010;45.080;7.634;2023-01-30T14:55:14;19.30;1.00
9943;DHT22;5010;45.080;7.634;2023-01-30T14:57:50;19.30;1.00
9943;DHT22;5010;45.080;7.634;2023-01-30T15:00:22;19.30;1.00
9943;DHT22;5010;45.080;7.634;2023-01-30T15:02:52;19.30;1.00
9943;DHT22;5010;45.080;7.634;2023-01-30T15:05:26;19.40;1.00
9943;DHT22;5010;45.080;7.634;2023-01-30T15:07:57;19.30;1.00
9943;DHT22;5010;45.080;7.634;2023-01-30T15:10:54;19.30;1.00
9943;DHT22;5010;45.080;7.634;2023-01-30T15:13:35;19.30;1.00
9943;DHT22;5010;45.080;7.634;2023-01-30T15:16:13;19.30;1.00
9943;DHT22;5010;45.080;7.634;2023-01-30T15:18:59;19.30;1.00
9943;DHT22;5010;45.080;7.634;2023-01-30T15:21:48;19.20;1.00
9943;DHT22;5010;45.080;7.634;2023-01-30T15:27:21;19.20;1.00
9943;DHT22;5010;45.080;7.634;2023-01-30T15:30:04;19.20;1.00
9943;DHT22;5010;45.080;7.634;2023-01-30T15:32:41;19.20;1.00
9943;DHT22;5010;45.080;7.634;2023-01-30T15:35:21;19.20;1.00
9943;DHT22;5010;45.080;7.634;2023-01-30T15:37:50;19.10;1.00
9943;DHT22;5010;45.080;7.634;2023-01-30T15:40:21;19.20;1.00
9943;DHT22;5010;45.080;7.634;2023-01-30T15:42:51;19.10;1.00
9943;DHT22;5010;45.080;7.634;2023-01-30T15:45:26;19.10;1.00
9943;DHT22;5010;45.080;7.634;2023-01-30T15:48:07;19.10;1.00
9943;DHT22;5010;45.080;7.634;2023-01-30T15:50:38;19.10;1.00
9943;DHT22;5010;45.080;7.634;2023-01-30T15:53:12;19.00;1.00
9943;DHT22;5010;45.080;7.634;2023-01-30T15:55:42;19.00;1.00
9943;DHT22;5010;45.080;7.634;2023-01-30T15:58:13;19.00;1.00
9943;DHT22;5010;45.080;7.634;2023-01-30T16:00:45;19.00;1.00
9943;DHT22;5010;45.080;7.634;2023-01-30T16:03:16;19.00;1.00
9943;DHT22;5010;45.080;7.634;2023-01-30T16:05:47;19.00;1.00
9943;DHT22;5010;45.080;7.634;2023-01-30T16:08:20;19.00;1.00
9943;DHT22;5010;45.080;7.634;2023-01-30T16:10:49;19.00;1.00
9943;DHT22;5010;45.080;7.634;2023-01-30T16:13:16;19.00;3.70
9943;DHT22;5010;45.080;7.634;2023-01-30T16:15:47;19.00;2.80
9943;DHT22;5010;45.080;7.634;2023-01-30T16:18:23;19.00;3.90
9943;DHT22;5010;45.080;7.634;2023-01-30T16:20:54;19.00;4.80
9943;DHT22;5010;45.080;7.634;2023-01-30T16:23:26;18.90;3.50
9943;DHT22;5010;45.080;7.634;2023-01-30T16:25:56;18.90;3.30
9943;DHT22;5010;45.080;7.634;2023-01-30T16:28:24;18.90;2.50
9943;DHT22;5010;45.080;7.634;2023-01-30T16:30:57;18.90;2.40
9943;DHT22;5010;45.080;7.634;2023-01-30T16:33:25;18.90;3.30
9943;DHT22;5010;45.080;7.634;2023-01-30T16:35:52;18.90;3.00
9943;DHT22;5010;45.080;7.634;2023-01-30T16:38:32;18.90;1.20
9943;DHT22;5010;45.080;7.634;2023-01-30T16:41:02;18.90;1.00
9943;DHT22;5010;45.080;7.634;2023-01-30T16:43:31;18.80;1.00
9943;DHT22;5010;45.080;7.634;2023-01-30T16:49:14;18.80;1.00
9943;DHT22;5010;45.080;7.634;2023-01-30T16:51:42;18.80;1.00
9943;DHT22;5010;45.080;7.634;2023-01-30T16:54:16;18.70;1.00
9943;DHT22;5010;45.080;7.634;2023-01-30T16:56:48;18.70;1.00
9943;DHT22;5010;45.080;7.634;2023-01-30T16:59:19;18.70;1.00
9943;DHT22;5010;45.080;7.634;2023-01-30T17:01:46;18.70;1.00
9943;DHT22;5010;45.080;7.634;2023-01-30T17:04:18;18.70;1.00
9943;DHT22;5010;45.080;7.634;2023-01-30T17:06:51;18.70;1.00
9943;DHT22;5010;45.080;7.634;2023-01-30T17:09:45;18.60;1.00
9943;DHT22;5010;45.080;7.634;2023-01-30T17:12:36;18.60;1.00